Time,TemperatureF,DewpointF,PressureIn,WindDirection,WindDirectionDegrees,WindSpeedMPH,WindSpeedGustMPH,Humidity,HourlyPrecipIn,Conditions,Clouds,dailyrainin,SoftwareType,DateUTC
2013-05-24 07:02:00,74.0,70.0,29.96,ENE,76,0.0,6.0,88,0.00,,,0.00,,2013-05-24 12:02:00,
2013-05-24 07:11:00,74.0,70.0,29.96,ENE,76,0.0,6.0,88,0.00,,,0.00,,2013-05-24 12:11:00,
2013-05-24 07:21:00,74.0,70.0,29.96,ENE,73,0.0,6.0,88,0.00,,,0.00,,2013-05-24 12:21:00,
2013-05-24 07:32:00,74.0,70.0,29.97,ESE,102,1.0,8.0,88,0.00,,,0.00,,2013-05-24 12:32:00,
2013-05-24 07:42:00,74.0,70.0,29.97,ESE,102,1.0,8.0,88,0.00,,,0.00,,2013-05-24 12:42:00,
2013-05-24 07:52:00,75.0,71.0,29.98,East,98,5.0,7.0,88,0.00,,,0.00,,2013-05-24 12:52:00,
2013-05-24 08:02:00,75.0,71.0,29.98,ENE,69,6.0,10.0,87,0.00,,,0.00,,2013-05-24 13:02:00,
2013-05-24 08:11:00,75.0,71.0,29.98,ENE,69,6.0,10.0,87,0.00,,,0.00,,2013-05-24 13:11:00,
2013-05-24 08:21:00,76.0,72.0,29.98,East,98,7.0,11.0,86,0.00,,,0.00,,2013-05-24 13:21:00,
2013-05-24 08:32:00,76.0,70.0,29.98,East,87,8.0,15.0,83,0.00,,,0.00,,2013-05-24 13:32:00,
2013-05-24 08:42:00,76.0,70.0,29.98,East,87,8.0,15.0,83,0.00,,,0.00,,2013-05-24 13:42:00,
2013-05-24 08:52:00,77.0,71.0,29.99,ESE,109,5.0,14.0,81,0.00,,,0.00,,2013-05-24 13:52:00,
2013-05-24 09:01:00,78.0,71.0,29.99,East,96,7.0,14.0,80,0.00,,,0.00,,2013-05-24 14:01:00,
2013-05-24 09:11:00,78.0,71.0,29.99,East,96,7.0,14.0,80,0.00,,,0.00,,2013-05-24 14:11:00,
2013-05-24 09:21:00,78.0,71.0,30.00,ESE,117,5.0,13.0,79,0.00,,,0.00,,2013-05-24 14:21:00,
2013-05-24 09:32:00,79.0,71.0,30.01,ESE,103,4.0,12.0,77,0.00,,,0.00,,2013-05-24 14:32:00,
2013-05-24 09:42:00,79.0,71.0,30.01,ESE,103,4.0,12.0,77,0.00,,,0.00,,2013-05-24 14:42:00,
2013-05-24 09:52:00,79.0,70.0,30.01,East,96,7.0,13.0,75,0.00,,,0.00,,2013-05-24 14:52:00,
2013-05-24 10:02:00,79.0,70.0,30.01,East,82,2.0,14.0,74,0.00,,,0.00,,2013-05-24 15:02:00,
2013-05-24 10:11:00,79.0,70.0,30.01,East,82,2.0,14.0,74,0.00,,,0.00,,2013-05-24 15:11:00,
2013-05-24 10:21:00,80.0,71.0,30.01,ENE,64,1.0,12.0,74,0.00,,,0.00,,2013-05-24 15:21:00,
2013-05-24 10:32:00,81.0,71.0,30.02,East,98,5.0,12.0,71,0.00,,,0.00,,2013-05-24 15:32:00,
2013-05-24 10:43:00,81.0,71.0,30.02,East,98,5.0,12.0,71,0.00,,,0.00,,2013-05-24 15:43:00,
2013-05-24 10:52:00,81.0,70.0,30.02,ENE,73,3.0,12.0,70,0.00,,,0.00,,2013-05-24 15:52:00,
2013-05-24 11:03:00,82.0,70.0,30.02,SE,126,9.0,14.0,67,0.00,,,0.00,,2013-05-24 16:03:00,
2013-05-24 11:12:00,82.0,70.0,30.02,SE,126,9.0,14.0,67,0.00,,,0.00,,2013-05-24 16:12:00,
2013-05-24 11:22:00,82.0,71.0,30.02,ESE,103,5.0,14.0,69,0.00,,,0.00,,2013-05-24 16:22:00,
2013-05-24 11:32:00,82.0,70.0,30.02,ENE,67,5.0,16.0,67,0.00,,,0.00,,2013-05-24 16:32:00,
2013-05-24 11:42:00,82.0,70.0,30.02,ENE,67,5.0,16.0,67,0.00,,,0.00,,2013-05-24 16:42:00,
2013-05-24 11:52:00,83.0,72.0,30.02,ENE,62,1.0,16.0,70,0.00,,,0.00,,2013-05-24 16:52:00,
2013-05-24 12:02:00,83.0,70.0,30.02,East,86,0.0,13.0,65,0.00,,,0.00,,2013-05-24 17:02:00,
2013-05-24 12:12:00,83.0,70.0,30.02,East,86,0.0,13.0,65,0.00,,,0.00,,2013-05-24 17:12:00,
2013-05-24 12:22:00,83.0,71.0,30.02,East,82,7.0,13.0,67,0.00,,,0.00,,2013-05-24 17:22:00,
2013-05-24 12:32:00,83.0,70.0,30.02,ESE,111,8.0,15.0,66,0.00,,,0.00,,2013-05-24 17:32:00,
2013-05-24 12:42:00,83.0,70.0,30.02,ESE,111,8.0,15.0,66,0.00,,,0.00,,2013-05-24 17:42:00,
2013-05-24 12:52:00,83.0,70.0,30.01,ESE,102,10.0,16.0,66,0.00,,,0.00,,2013-05-24 17:52:00,
2013-05-24 13:01:00,84.0,70.0,30.01,ESE,123,9.0,16.0,64,0.00,,,0.00,,2013-05-24 18:01:00,
2013-05-24 13:12:00,84.0,70.0,30.01,ESE,123,9.0,16.0,64,0.00,,,0.00,,2013-05-24 18:12:00,
2013-05-24 13:21:00,84.0,70.0,30.01,ENE,73,7.0,15.0,64,0.00,,,0.00,,2013-05-24 18:21:00,
2013-05-24 13:32:00,85.0,70.0,30.01,ESE,111,7.0,14.0,61,0.00,,,0.00,,2013-05-24 18:32:00,
2013-05-24 13:42:00,85.0,70.0,30.01,ESE,111,7.0,14.0,61,0.00,,,0.00,,2013-05-24 18:42:00,
2013-05-24 13:51:00,85.0,71.0,30.00,NNE,30,7.0,16.0,63,0.00,,,0.00,,2013-05-24 18:51:00,
2013-05-24 14:01:00,84.0,71.0,29.99,ENE,61,10.0,20.0,66,0.00,,,0.00,,2013-05-24 19:01:00,
2013-05-24 14:11:00,84.0,71.0,29.99,ENE,61,10.0,20.0,66,0.00,,,0.00,,2013-05-24 19:11:00,
2013-05-24 14:21:00,84.0,72.0,29.99,NE,45,10.0,20.0,68,0.00,,,0.00,,2013-05-24 19:21:00,
2013-05-24 14:32:00,84.0,73.0,29.98,East,80,13.0,18.0,69,0.00,,,0.00,,2013-05-24 19:32:00,
2013-05-24 14:41:00,84.0,73.0,29.98,East,80,13.0,18.0,69,0.00,,,0.00,,2013-05-24 19:41:00,
2013-05-24 14:52:00,84.0,70.0,29.98,East,88,8.0,20.0,63,0.00,,,0.00,,2013-05-24 19:52:00,
2013-05-24 15:02:00,84.0,70.0,29.98,East,88,8.0,20.0,63,0.00,,,0.00,,2013-05-24 20:02:00,
2013-05-24 15:11:00,84.0,70.0,29.98,East,88,8.0,20.0,63,0.00,,,0.00,,2013-05-24 20:11:00,
2013-05-24 15:21:00,84.0,70.0,29.98,East,88,8.0,20.0,63,0.00,,,0.00,,2013-05-24 20:21:00,